createdAt,value
2018-09-04T00:01:54.580Z,90.20
2018-09-04T00:04:22.706Z,90.30
2018-09-04T00:06:50.902Z,90.30
2018-09-04T00:09:19.022Z,90.40
2018-09-04T00:11:47.165Z,90.40
2018-09-04T00:14:15.282Z,90.50
2018-09-04T00:16:43.411Z,90.50
2018-09-04T00:19:11.544Z,90.60
2018-09-04T00:21:39.710Z,90.60
2018-09-04T00:24:07.844Z,90.70
2018-09-04T00:26:35.961Z,90.70
2018-09-04T00:29:04.093Z,90.50
2018-09-04T00:31:32.210Z,90.60
2018-09-04T00:34:00.350Z,90.60
2018-09-04T00:36:28.508Z,90.70
2018-09-04T00:38:56.631Z,90.80
2018-09-04T00:41:24.777Z,90.90
2018-09-04T00:43:52.905Z,90.90
2018-09-04T00:46:21.034Z,90.90
2018-09-04T00:48:49.178Z,90.90
2018-09-04T00:51:17.309Z,90.90
2018-09-04T00:53:45.474Z,91.00
2018-09-04T00:56:13.611Z,91.10
2018-09-04T00:58:41.767Z,91.10
2018-09-04T01:01:09.889Z,91.10
2018-09-04T01:03:38.033Z,91.20
2018-09-04T01:06:06.159Z,91.20
2018-09-04T01:08:34.298Z,91.30
2018-09-04T01:11:02.423Z,91.10
2018-09-04T01:13:30.557Z,91.10
2018-09-04T01:15:58.757Z,91.20
2018-09-04T01:18:27.122Z,91.20
2018-09-04T01:20:55.286Z,91.30
2018-09-04T01:23:23.428Z,91.30
2018-09-04T01:25:51.578Z,91.30
2018-09-04T01:28:19.709Z,91.40
2018-09-04T01:30:54.382Z,91.30
2018-09-04T01:33:22.501Z,91.30
2018-09-04T01:35:50.630Z,91.40
2018-09-04T01:38:18.773Z,91.40
2018-09-04T01:40:46.900Z,91.40
2018-09-04T01:43:15.022Z,91.50
2018-09-04T01:45:43.349Z,91.60
2018-09-04T01:48:11.889Z,91.50
2018-09-04T01:50:40.018Z,91.40
2018-09-04T01:53:08.155Z,91.50
2018-09-04T01:55:36.293Z,91.50
2018-09-04T01:58:04.653Z,91.50
2018-09-04T02:00:32.781Z,91.60
2018-09-04T02:03:00.937Z,91.50
2018-09-04T02:05:29.054Z,91.70
2018-09-04T02:07:57.193Z,91.70
2018-09-04T02:10:25.343Z,91.60
2018-09-04T02:12:53.518Z,91.70
2018-09-04T02:15:21.659Z,91.80
2018-09-04T02:17:49.777Z,91.80
2018-09-04T02:20:17.906Z,91.80
2018-09-04T02:22:46.105Z,91.70
2018-09-04T02:25:14.251Z,91.80
2018-09-04T02:27:42.406Z,91.70
2018-09-04T02:30:10.543Z,91.70
2018-09-04T02:32:38.655Z,91.70
2018-09-04T02:35:07.283Z,91.60
2018-09-04T02:37:35.397Z,91.40
2018-09-04T02:40:03.538Z,91.30
2018-09-04T02:42:31.654Z,91.40
2018-09-04T02:44:59.798Z,91.50
2018-09-04T02:47:27.931Z,91.50
2018-09-04T02:49:56.062Z,91.50
2018-09-04T02:52:24.190Z,91.60
2018-09-04T02:54:52.334Z,91.70
2018-09-04T02:57:20.465Z,91.70
2018-09-04T02:59:48.643Z,91.70
2018-09-04T03:02:16.766Z,91.80
2018-09-04T03:04:44.894Z,91.80
2018-09-04T03:07:13.029Z,91.90
2018-09-04T03:09:41.161Z,92.00
2018-09-04T03:12:09.277Z,92.10
2018-09-04T03:14:37.429Z,92.20
2018-09-04T03:17:05.549Z,92.10
2018-09-04T03:19:33.676Z,92.20
2018-09-04T03:22:01.840Z,92.70
2018-09-04T03:24:30.111Z,92.40
2018-09-04T03:26:58.215Z,92.40
2018-09-04T03:29:26.345Z,92.50
2018-09-04T03:31:54.466Z,92.40
2018-09-04T03:34:22.618Z,92.20
2018-09-04T03:36:50.741Z,92.30
2018-09-04T03:39:18.869Z,92.30
2018-09-04T03:41:47.116Z,92.40
2018-09-04T03:44:15.401Z,92.50
2018-09-04T03:46:43.469Z,92.50
2018-09-04T03:49:11.591Z,92.50
2018-09-04T03:51:39.725Z,92.50
2018-09-04T03:54:07.876Z,92.60
2018-09-04T03:56:35.989Z,92.60
2018-09-04T03:59:04.145Z,92.50
2018-09-04T04:01:32.330Z,92.50
2018-09-04T04:04:00.405Z,92.70
2018-09-04T04:06:28.534Z,92.70
2018-09-04T04:08:56.662Z,92.60
2018-09-04T04:11:24.794Z,92.60
2018-09-04T04:13:52.925Z,92.50
2018-09-04T04:16:21.050Z,92.40
2018-09-04T04:18:49.225Z,92.40
2018-09-04T04:21:17.438Z,92.30
2018-09-04T04:23:45.608Z,92.30
2018-09-04T04:26:13.722Z,92.70
2018-09-04T04:28:42.049Z,92.30
2018-09-04T04:31:10.206Z,92.30
2018-09-04T04:33:38.385Z,92.30
2018-09-04T04:36:06.542Z,92.20
2018-09-04T04:38:34.685Z,92.30
2018-09-04T04:41:02.892Z,92.20
2018-09-04T04:43:31.055Z,92.20
2018-09-04T04:45:59.181Z,92.20
2018-09-04T04:48:27.306Z,92.30
2018-09-04T04:50:55.449Z,92.20
2018-09-04T04:53:23.574Z,92.20
2018-09-04T04:55:51.822Z,92.20
2018-09-04T04:58:19.941Z,92.40
2018-09-04T05:00:48.126Z,92.50
2018-09-04T05:03:16.250Z,92.60
2018-09-04T05:05:44.403Z,92.60
2018-09-04T05:08:12.529Z,92.70
2018-09-04T05:10:40.697Z,92.70
2018-09-04T05:13:08.898Z,92.80
2018-09-04T05:15:37.047Z,92.70
2018-09-04T05:18:05.458Z,92.60
2018-09-04T05:20:33.588Z,92.60
2018-09-04T05:23:01.941Z,92.60
2018-09-04T05:25:30.092Z,92.60
2018-09-04T05:27:58.282Z,92.70
2018-09-04T05:30:26.450Z,92.70
2018-09-04T05:33:00.025Z,92.70
2018-09-04T05:35:32.023Z,92.70
2018-09-04T05:38:00.286Z,92.60
2018-09-04T05:40:28.422Z,92.50
2018-09-04T05:42:58.829Z,92.40
2018-09-04T05:45:28.366Z,92.40
2018-09-04T05:48:03.930Z,92.50
2018-09-04T05:50:32.262Z,92.50
2018-09-04T05:53:00.469Z,92.50
2018-09-04T05:55:28.721Z,92.40
2018-09-04T05:57:56.975Z,92.30
2018-09-04T06:00:29.474Z,92.40
2018-09-04T06:02:57.587Z,92.40
2018-09-04T06:05:25.770Z,92.60
2018-09-04T06:07:54.078Z,92.20
2018-09-04T06:10:22.221Z,92.20
2018-09-04T06:12:50.542Z,92.10
2018-09-04T06:15:18.912Z,92.20
2018-09-04T06:17:47.042Z,92.20
2018-09-04T06:20:15.193Z,92.20
2018-09-04T06:22:43.328Z,92.30
2018-09-04T06:25:11.466Z,92.20
2018-09-04T06:27:39.654Z,92.00
2018-09-04T06:30:08.057Z,92.00
2018-09-04T06:32:36.368Z,91.90
2018-09-04T06:35:04.767Z,91.50
2018-09-04T06:37:32.925Z,91.60
2018-09-04T06:40:01.069Z,91.40
2018-09-04T06:42:29.246Z,91.20
2018-09-04T06:44:57.378Z,91.10
2018-09-04T06:47:25.513Z,91.00
2018-09-04T06:49:53.681Z,90.90
2018-09-04T06:52:21.830Z,90.70
2018-09-04T06:54:49.974Z,90.70
2018-09-04T06:57:18.118Z,90.50
2018-09-04T06:59:46.332Z,90.30
2018-09-04T07:02:14.471Z,90.40
2018-09-04T07:04:42.603Z,90.40
2018-09-04T07:07:10.802Z,90.20
2018-09-04T07:09:38.967Z,90.10
2018-09-04T07:12:07.145Z,90.00
2018-09-04T07:14:35.269Z,89.80
2018-09-04T07:17:03.495Z,88.80
2018-09-04T07:19:31.587Z,88.40
2018-09-04T07:21:59.713Z,88.20
2018-09-04T07:24:27.859Z,88.10
2018-09-04T07:26:56.037Z,87.80
2018-09-04T07:29:24.168Z,87.40
2018-09-04T07:31:52.353Z,86.70
2018-09-04T07:34:20.473Z,86.80
2018-09-04T07:36:48.610Z,85.80
2018-09-04T07:39:16.739Z,85.60
2018-09-04T07:41:44.878Z,85.70
2018-09-04T07:44:12.993Z,85.00
2018-09-04T07:46:41.143Z,84.80
2018-09-04T07:49:09.302Z,84.30
2018-09-04T07:51:37.445Z,83.00
2018-09-04T07:54:05.669Z,82.10
2018-09-04T07:56:33.807Z,81.80
2018-09-04T07:59:01.970Z,81.20
2018-09-04T08:01:30.102Z,80.70
2018-09-04T08:03:58.251Z,80.80
2018-09-04T08:06:26.390Z,79.60
2018-09-04T08:08:54.529Z,79.60
2018-09-04T08:11:22.653Z,79.20
2018-09-04T08:13:50.825Z,78.50
2018-09-04T08:16:18.997Z,78.30
2018-09-04T08:18:47.134Z,77.70
2018-09-04T08:21:15.266Z,77.40
2018-09-04T08:23:43.440Z,76.70
2018-09-04T08:26:11.609Z,76.70
2018-09-04T08:28:39.765Z,76.20
2018-09-04T08:31:07.972Z,75.60
2018-09-04T08:33:36.111Z,75.20
2018-09-04T08:36:04.233Z,74.80
2018-09-04T08:38:35.238Z,74.20
2018-09-04T08:41:03.358Z,73.30
2018-09-04T08:43:31.482Z,72.00
2018-09-04T08:45:59.610Z,72.70
2018-09-04T08:48:28.335Z,71.40
2018-09-04T08:50:56.459Z,71.60
2018-09-04T08:53:24.633Z,71.00
2018-09-04T08:55:52.738Z,70.70
2018-09-04T08:58:20.923Z,69.70
2018-09-04T09:00:49.055Z,69.30
2018-09-04T09:03:17.201Z,68.70
2018-09-04T09:05:45.322Z,67.90
2018-09-04T09:08:13.442Z,67.80
2018-09-04T09:10:41.622Z,67.30
2018-09-04T09:13:09.822Z,66.90
2018-09-04T09:15:37.975Z,66.40
2018-09-04T09:18:06.118Z,66.30
2018-09-04T09:20:34.265Z,66.60
2018-09-04T09:23:02.421Z,66.90
2018-09-04T09:25:30.568Z,67.10
2018-09-04T09:27:58.755Z,66.60
2018-09-04T09:30:26.870Z,67.50
2018-09-04T09:32:55.073Z,67.90
2018-09-04T09:35:23.218Z,66.80
2018-09-04T09:37:51.377Z,66.50
2018-09-04T09:40:19.511Z,65.80
2018-09-04T09:42:47.661Z,65.10
2018-09-04T09:45:15.778Z,64.40
2018-09-04T09:47:49.795Z,64.30
2018-09-04T09:50:18.807Z,63.20
2018-09-04T09:52:47.142Z,63.20
2018-09-04T09:55:15.322Z,63.30
2018-09-04T09:57:43.519Z,62.80
2018-09-04T10:00:17.164Z,62.20
2018-09-04T10:02:55.574Z,61.20
2018-09-04T10:05:23.974Z,60.30
2018-09-04T10:07:52.408Z,59.80
2018-09-04T10:10:20.526Z,59.70
2018-09-04T10:12:48.598Z,59.50
2018-09-04T10:15:16.732Z,58.80
2018-09-04T10:17:44.868Z,58.90
2018-09-04T10:20:13.018Z,58.10
2018-09-04T10:22:41.187Z,58.50
2018-09-04T10:25:09.704Z,57.80
2018-09-04T10:27:38.061Z,57.30
2018-09-04T10:30:06.891Z,56.60
2018-09-04T10:32:35.071Z,56.20
2018-09-04T10:35:03.221Z,56.00
2018-09-04T10:37:31.357Z,55.60
2018-09-04T10:40:05.052Z,55.00
2018-09-04T10:42:33.178Z,54.80
2018-09-04T10:45:01.326Z,53.70
2018-09-04T10:47:29.559Z,52.60
2018-09-04T10:49:57.858Z,51.70
2018-09-04T10:52:26.074Z,49.40
2018-09-04T10:54:54.227Z,50.30
2018-09-04T10:57:22.540Z,49.50
2018-09-04T10:59:50.707Z,48.90
2018-09-04T11:02:19.634Z,49.30
2018-09-04T11:04:48.708Z,49.40
2018-09-04T11:07:16.932Z,48.80
2018-09-04T11:09:45.151Z,49.30
2018-09-04T11:12:13.235Z,49.20
2018-09-04T11:14:41.374Z,48.60
2018-09-04T11:17:09.883Z,48.80
2018-09-04T11:19:38.014Z,48.80
2018-09-04T11:22:06.173Z,49.30
2018-09-04T11:24:35.107Z,49.00
2018-09-04T11:27:03.230Z,48.70
2018-09-04T11:29:31.419Z,48.60
2018-09-04T11:31:59.562Z,48.40
2018-09-04T11:34:27.755Z,49.10
2018-09-04T11:36:55.924Z,48.60
2018-09-04T11:39:24.074Z,48.10
2018-09-04T11:41:52.297Z,47.30
2018-09-04T11:44:20.446Z,47.40
2018-09-04T11:46:48.657Z,46.80
2018-09-04T11:49:16.777Z,46.00
2018-09-04T11:51:44.937Z,45.50
2018-09-04T11:54:13.122Z,45.70
2018-09-04T11:56:41.364Z,46.10
2018-09-04T11:59:09.777Z,46.70
2018-09-04T12:01:40.695Z,46.90
2018-09-04T12:04:09.038Z,47.60
2018-09-04T12:06:37.287Z,46.50
2018-09-04T12:09:06.497Z,46.20
2018-09-04T12:11:34.716Z,45.60
2018-09-04T12:14:02.866Z,44.70
2018-09-04T12:16:31.010Z,44.60
2018-09-04T12:18:59.213Z,45.10
2018-09-04T12:21:27.370Z,45.00
2018-09-04T12:23:55.606Z,45.50
2018-09-04T12:26:23.764Z,45.40
2018-09-04T12:28:51.930Z,44.70
2018-09-04T12:31:20.075Z,43.20
2018-09-04T12:33:48.284Z,43.20
2018-09-04T12:36:16.409Z,42.30
2018-09-04T12:38:44.533Z,41.80
2018-09-04T12:41:15.672Z,41.40
2018-09-04T12:43:43.833Z,41.60
2018-09-04T12:46:12.025Z,39.20
2018-09-04T12:48:44.411Z,38.30
2018-09-04T12:51:12.563Z,37.50
2018-09-04T12:53:40.709Z,36.60
2018-09-04T12:56:08.874Z,37.00
2018-09-04T12:58:37.062Z,37.30
2018-09-04T13:01:05.751Z,37.10
2018-09-04T13:03:33.899Z,36.10
2018-09-04T13:06:02.024Z,35.00
2018-09-04T13:08:31.850Z,33.50
2018-09-04T13:11:00.030Z,33.10
2018-09-04T13:13:28.590Z,33.00
2018-09-04T13:15:58.393Z,33.20
2018-09-04T13:18:27.375Z,34.60
2018-09-04T13:21:00.981Z,35.30
2018-09-04T13:23:29.430Z,36.70
2018-09-04T13:25:57.694Z,38.10
2018-09-04T13:28:25.862Z,39.80
2018-09-04T13:30:54.020Z,40.80
2018-09-04T13:33:22.144Z,41.90
2018-09-04T13:35:50.370Z,42.30
2018-09-04T13:38:18.519Z,42.40
2018-09-04T13:40:46.662Z,42.10
2018-09-04T13:43:14.857Z,42.80
2018-09-04T13:45:43.022Z,42.30
2018-09-04T13:48:11.175Z,42.40
2018-09-04T13:50:39.342Z,42.10
2018-09-04T13:53:07.525Z,42.60
2018-09-04T13:55:41.108Z,42.60
2018-09-04T13:58:09.240Z,41.10
2018-09-04T14:00:37.382Z,39.70
2018-09-04T14:03:05.505Z,39.90
2018-09-04T14:05:33.651Z,40.40
2018-09-04T14:08:01.790Z,40.60
2018-09-04T14:10:29.974Z,41.30
2018-09-04T14:12:58.142Z,42.20
2018-09-04T14:15:26.295Z,42.50
2018-09-04T14:17:54.466Z,43.10
2018-09-04T14:20:22.613Z,43.80
2018-09-04T14:22:50.777Z,43.30
2018-09-04T14:25:18.951Z,43.30
2018-09-04T14:27:51.014Z,43.50
2018-09-04T14:30:19.255Z,43.60
2018-09-04T14:32:47.568Z,43.40
2018-09-04T14:35:15.781Z,44.20
2018-09-04T14:37:44.022Z,44.40
2018-09-04T14:40:12.448Z,44.00
2018-09-04T14:42:40.645Z,44.20
2018-09-04T14:45:08.738Z,43.70
2018-09-04T14:47:36.893Z,43.50
2018-09-04T14:50:05.342Z,43.30
2018-09-04T14:52:33.498Z,42.80
2018-09-04T14:55:01.691Z,42.30
2018-09-04T14:57:29.851Z,41.70
2018-09-04T14:59:58.161Z,41.50
2018-09-04T15:02:26.274Z,41.70
2018-09-04T15:04:54.474Z,41.70
2018-09-04T15:07:23.069Z,41.70
2018-09-04T15:09:51.245Z,41.50
2018-09-04T15:12:19.377Z,41.70
2018-09-04T15:14:47.514Z,41.80
2018-09-04T15:17:15.756Z,42.70
2018-09-04T15:19:44.017Z,42.70
2018-09-04T15:22:12.174Z,42.60
2018-09-04T15:24:40.330Z,42.70
2018-09-04T15:27:08.537Z,43.10
2018-09-04T15:29:36.685Z,45.30
2018-09-04T15:32:04.877Z,46.40
2018-09-04T15:34:33.087Z,46.80
2018-09-04T15:37:01.324Z,46.80
2018-09-04T15:39:29.446Z,47.40
2018-09-04T15:41:57.598Z,48.40
2018-09-04T15:44:25.746Z,48.00
2018-09-04T15:46:53.910Z,48.60
2018-09-04T15:49:27.642Z,48.40
2018-09-04T15:51:55.765Z,48.80
2018-09-04T15:54:23.921Z,49.60
2018-09-04T15:56:52.092Z,49.70
2018-09-04T15:59:21.353Z,50.10
2018-09-04T16:01:49.479Z,50.40
2018-09-04T16:04:17.676Z,50.10
2018-09-04T16:07:17.242Z,50.10
2018-09-04T16:09:45.608Z,49.20
2018-09-04T16:12:13.675Z,48.70
2018-09-04T16:14:41.831Z,48.40
2018-09-04T16:17:09.996Z,48.70
2018-09-04T16:19:38.113Z,49.70
2018-09-04T16:22:06.301Z,50.40
2018-09-04T16:24:34.503Z,49.90
2018-09-04T16:27:02.634Z,50.70
2018-09-04T16:29:30.858Z,51.40
2018-09-04T16:31:59.006Z,52.00
2018-09-04T16:34:27.204Z,53.20
2018-09-04T16:36:55.555Z,53.80
2018-09-04T16:39:23.779Z,53.00
2018-09-04T16:41:51.892Z,52.20
2018-09-04T16:44:20.015Z,52.80
2018-09-04T16:46:48.165Z,52.00
2018-09-04T16:49:16.291Z,51.80
2018-09-04T16:51:44.415Z,51.60
2018-09-04T16:54:12.562Z,50.60
2018-09-04T16:56:40.698Z,50.00
2018-09-04T16:59:08.847Z,50.60
2018-09-04T17:01:36.966Z,50.80
2018-09-04T17:04:05.225Z,50.90
2018-09-04T17:06:33.373Z,51.40
2018-09-04T17:09:01.518Z,51.80
2018-09-04T17:11:29.665Z,52.20
2018-09-04T17:13:57.836Z,52.70
2018-09-04T17:16:25.974Z,52.60
2018-09-04T17:18:54.135Z,53.10
2018-09-04T17:21:22.274Z,53.30
2018-09-04T17:23:50.422Z,53.30
2018-09-04T17:26:18.588Z,53.90
2018-09-04T17:28:46.730Z,53.80
2018-09-04T17:31:14.845Z,54.10
2018-09-04T17:33:42.978Z,54.40
2018-09-04T17:36:11.120Z,54.90
2018-09-04T17:38:39.248Z,55.30
2018-09-04T17:41:07.412Z,55.60
2018-09-04T17:43:35.557Z,55.80
2018-09-04T17:46:03.722Z,56.20
2018-09-04T17:48:31.871Z,56.50
2018-09-04T17:51:00.039Z,56.60
2018-09-04T17:53:28.185Z,56.80
2018-09-04T17:55:56.318Z,57.00
2018-09-04T17:58:24.457Z,56.90
2018-09-04T18:00:52.608Z,57.20
2018-09-04T18:03:21.018Z,57.50
2018-09-04T18:05:49.405Z,57.70
2018-09-04T18:08:17.672Z,57.90
2018-09-04T18:10:45.817Z,58.10
2018-09-04T18:13:13.955Z,58.30
2018-09-04T18:15:42.106Z,58.80
2018-09-04T18:18:10.276Z,59.50
2018-09-04T18:20:38.442Z,59.90
2018-09-04T18:23:06.569Z,60.40
2018-09-04T18:25:34.701Z,60.70
2018-09-04T18:28:02.854Z,61.10
2018-09-04T18:30:31.002Z,61.60
2018-09-04T18:32:59.129Z,61.50
2018-09-04T18:35:27.330Z,61.80
2018-09-04T18:37:55.475Z,62.40
2018-09-04T18:40:23.622Z,62.50
2018-09-04T18:42:51.771Z,62.70
2018-09-04T18:45:31.297Z,62.70
2018-09-04T18:47:59.477Z,62.80
2018-09-04T18:50:28.668Z,63.10
2018-09-04T18:52:57.106Z,63.50
2018-09-04T18:55:25.291Z,63.80
2018-09-04T18:57:53.433Z,64.20
2018-09-04T19:00:21.557Z,64.50
2018-09-04T19:02:50.409Z,64.90
2018-09-04T19:05:18.538Z,65.60
2018-09-04T19:07:46.749Z,67.30
2018-09-04T19:10:14.928Z,67.50
2018-09-04T19:12:43.070Z,68.10
2018-09-04T19:15:11.220Z,69.40
2018-09-04T19:17:39.340Z,69.70
2018-09-04T19:20:07.478Z,70.20
2018-09-04T19:22:46.875Z,70.70
2018-09-04T19:25:15.222Z,71.00
2018-09-04T19:27:43.359Z,70.80
2018-09-04T19:30:11.514Z,70.80
2018-09-04T19:32:39.809Z,71.40
2018-09-04T19:35:07.971Z,71.40
2018-09-04T19:37:36.238Z,71.80
2018-09-04T19:40:04.486Z,72.30
2018-09-04T19:42:32.618Z,72.50
2018-09-04T19:45:00.893Z,72.50
2018-09-04T19:47:29.067Z,72.90
2018-09-04T19:49:57.298Z,73.10
2018-09-04T19:52:25.340Z,72.90
2018-09-04T19:54:53.559Z,73.00
2018-09-04T19:57:21.710Z,73.10
2018-09-04T19:59:49.959Z,73.30
2018-09-04T20:02:18.120Z,73.50
2018-09-04T20:04:46.248Z,73.60
2018-09-04T20:07:14.410Z,73.70
2018-09-04T20:09:42.566Z,73.70
2018-09-04T20:12:10.708Z,73.90
2018-09-04T20:14:38.855Z,74.30
2018-09-04T20:17:07.016Z,74.30
2018-09-04T20:19:35.253Z,74.50
2018-09-04T20:22:03.395Z,74.50
2018-09-04T20:24:31.554Z,74.60
2018-09-04T20:26:59.732Z,74.60
2018-09-04T20:29:27.962Z,74.60
2018-09-04T20:31:56.038Z,74.80
2018-09-04T20:34:24.193Z,74.50
2018-09-04T20:36:52.322Z,74.60
2018-09-04T20:39:20.483Z,75.00
2018-09-04T20:41:48.635Z,75.20
2018-09-04T20:44:16.789Z,75.30
2018-09-04T20:46:44.925Z,76.00
2018-09-04T20:49:13.084Z,76.60
2018-09-04T20:51:41.210Z,76.80
2018-09-04T20:54:09.459Z,77.00
2018-09-04T20:56:37.617Z,78.00
2018-09-04T20:59:17.222Z,77.40
2018-09-04T21:01:56.649Z,77.60
2018-09-04T21:04:36.127Z,77.50
2018-09-04T21:07:03.302Z,77.40
2018-09-04T21:09:39.352Z,77.50
2018-09-04T21:12:08.684Z,77.60
2018-09-04T21:14:36.850Z,77.60
2018-09-04T21:17:05.076Z,77.50
2018-09-04T21:19:33.372Z,77.40
2018-09-04T21:22:01.452Z,77.50
2018-09-04T21:24:29.603Z,77.70
2018-09-04T21:26:57.806Z,77.80
2018-09-04T21:29:25.946Z,77.80
2018-09-04T21:31:54.102Z,77.80
2018-09-04T21:34:22.301Z,77.70
2018-09-04T21:36:50.515Z,77.60
2018-09-04T21:39:18.627Z,77.50
2018-09-04T21:41:46.834Z,77.50
2018-09-04T21:44:14.960Z,77.40
2018-09-04T21:46:43.118Z,77.40
2018-09-04T21:49:11.225Z,77.30
2018-09-04T21:51:39.374Z,77.20
2018-09-04T21:54:07.530Z,77.20
2018-09-04T21:56:35.683Z,77.20
2018-09-04T21:59:03.890Z,77.30
2018-09-04T22:01:32.035Z,77.30
2018-09-04T22:04:00.177Z,77.50
2018-09-04T22:06:28.345Z,77.40
2018-09-04T22:08:56.489Z,77.60
2018-09-04T22:11:24.633Z,77.80
2018-09-04T22:13:52.789Z,78.00
2018-09-04T22:16:20.932Z,78.00
2018-09-04T22:18:49.085Z,78.40
2018-09-04T22:21:17.236Z,78.50
2018-09-04T22:23:45.421Z,78.60
2018-09-04T22:26:13.565Z,78.70
2018-09-04T22:28:41.702Z,78.90
2018-09-04T22:31:09.854Z,79.00
2018-09-04T22:33:38.014Z,78.80
2018-09-04T22:36:07.038Z,79.10
2018-09-04T22:38:35.182Z,79.10
2018-09-04T22:41:03.342Z,79.30
2018-09-04T22:43:31.487Z,79.60
2018-09-04T22:45:59.649Z,79.70
2018-09-04T22:48:27.807Z,79.90
2018-09-04T22:51:01.410Z,80.00
2018-09-04T22:53:29.618Z,79.90
2018-09-04T22:55:57.790Z,80.00
2018-09-04T22:58:25.936Z,80.10
2018-09-04T23:00:54.085Z,80.20
2018-09-04T23:03:22.221Z,80.20
2018-09-04T23:05:54.255Z,80.30
2018-09-04T23:08:22.497Z,80.50
2018-09-04T23:10:50.637Z,80.60
2018-09-04T23:13:18.764Z,80.80
2018-09-04T23:15:46.932Z,80.90
2018-09-04T23:18:15.091Z,80.90
2018-09-04T23:20:43.366Z,81.10
2018-09-04T23:23:11.518Z,81.20
2018-09-04T23:25:39.678Z,81.20
2018-09-04T23:28:07.826Z,81.90
2018-09-04T23:30:35.962Z,81.20
2018-09-04T23:33:04.134Z,81.30
2018-09-04T23:35:32.327Z,81.10
2018-09-04T23:38:00.504Z,81.10
2018-09-04T23:40:28.642Z,81.10
2018-09-04T23:42:56.823Z,81.30
2018-09-04T23:45:24.987Z,81.30
2018-09-04T23:47:53.143Z,81.40
2018-09-04T23:50:21.274Z,81.50
2018-09-04T23:52:49.469Z,81.80
2018-09-04T23:55:17.603Z,81.70
2018-09-04T23:57:45.762Z,81.80
